KLM2646 LPPT-EHAM
Flight info
| Callsign | KLM2646 |
|---|---|
| Flight time | N/A |
| Altitude | 36000 |
| Route | IXIDA DCT RIVRO DCT TOSDI DCT ZMR DCT NUBLO DCT RONSI DCT DELOG DCT PEXOD DCT DIDIG DCT USODA DCT ERCUT DCT DITAL UN873 BAZOS DCT LUMIL DCT BELOB UY873 DENUT |
| Aircraft | A321/M-SDE3FGHIRWY/LB1 |
Departure
| Time | N/A |
|---|---|
| Airport | Lisbon Humberto Delgado Airport (LPPT) |
Arrival
| Time | 2026-05-04 18:20 |
|---|---|
| Airport | Amsterdam Airport Schiphol (EHAM) |
| Time | Latitude | Longitude | Altitude | Speed | Heading |
|---|---|---|---|---|---|
| 2026-05-04 16:33 | 41.35423 | -5.85316 | 35958 ft | 504 kts | 38° |
| 2026-05-04 16:34 | 41.43200 | -5.75903 | 35975 ft | 504 kts | 38° |
| 2026-05-04 16:35 | 41.59977 | -5.60061 | 35953 ft | 489 kts | 18° |
| 2026-05-04 16:36 | 41.69393 | -5.54755 | 35974 ft | 490 kts | 18° |
| 2026-05-04 16:37 | 41.78809 | -5.49423 | 35965 ft | 490 kts | 18° |
| 2026-05-04 16:38 | 41.91355 | -5.42307 | 35977 ft | 490 kts | 19° |
| 2026-05-04 16:39 | 42.07033 | -5.33354 | 35978 ft | 490 kts | 19° |
| 2026-05-04 16:40 | 42.19586 | -5.26156 | 35987 ft | 490 kts | 19° |
| 2026-05-04 16:41 | 42.34215 | -5.17715 | 35979 ft | 491 kts | 20° |
| 2026-05-04 16:43 | 42.49910 | -5.08632 | 35978 ft | 491 kts | 20° |
| 2026-05-04 16:43 | 42.59320 | -5.03159 | 35990 ft | 491 kts | 20° |
| 2026-05-04 16:45 | 42.78095 | -4.92178 | 35993 ft | 491 kts | 20° |
| 2026-05-04 16:46 | 42.93779 | -4.82934 | 36022 ft | 492 kts | 21° |
| 2026-05-04 16:47 | 43.06357 | -4.75515 | 36028 ft | 492 kts | 21° |
| 2026-05-04 16:48 | 43.18921 | -4.68038 | 36055 ft | 492 kts | 21° |
| 2026-05-04 16:49 | 43.31475 | -4.60560 | 36045 ft | 491 kts | 21° |
| 2026-05-04 16:50 | 43.43986 | -4.53053 | 36037 ft | 491 kts | 22° |
| 2026-05-04 16:51 | 43.53375 | -4.47408 | 36034 ft | 491 kts | 21° |
| 2026-05-04 16:52 | 43.65838 | -4.39866 | 36034 ft | 490 kts | 22° |
| 2026-05-04 16:53 | 43.75208 | -4.34182 | 36037 ft | 490 kts | 22° |
| 2026-05-04 16:54 | 43.87703 | -4.26585 | 36024 ft | 490 kts | 22° |
| 2026-05-04 16:55 | 44.06436 | -4.15093 | 36022 ft | 490 kts | 22° |
| 2026-05-04 16:56 | 44.22031 | -4.05478 | 36025 ft | 490 kts | 23° |
| 2026-05-04 16:57 | 44.31365 | -3.99696 | 36014 ft | 489 kts | 25° |
| 2026-05-04 16:58 | 44.42742 | -3.89272 | 36012 ft | 489 kts | 34° |
| 2026-05-04 17:00 | 44.59518 | -3.73044 | 36005 ft | 489 kts | 35° |
| 2026-05-04 17:01 | 44.73493 | -3.59419 | 36003 ft | 489 kts | 35° |
| 2026-05-04 17:02 | 44.84664 | -3.48460 | 36004 ft | 489 kts | 35° |
| 2026-05-04 17:03 | 44.93032 | -3.40229 | 35990 ft | 489 kts | 35° |
| 2026-05-04 17:03 | 45.01400 | -3.31979 | 36003 ft | 489 kts | 35° |
| 2026-05-04 17:04 | 45.12530 | -3.20941 | 36002 ft | 488 kts | 35° |
| 2026-05-04 17:05 | 45.23597 | -3.09906 | 36007 ft | 488 kts | 36° |
| 2026-05-04 17:06 | 45.31916 | -3.01572 | 35993 ft | 488 kts | 36° |
| 2026-05-04 17:07 | 45.39290 | -2.94044 | 35997 ft | 488 kts | 37° |
| 2026-05-04 17:07 | 45.45667 | -2.87417 | 35998 ft | 488 kts | 37° |
| 2026-05-04 17:08 | 45.53899 | -2.78868 | 36000 ft | 488 kts | 37° |
| 2026-05-04 17:09 | 45.59386 | -2.73169 | 36005 ft | 488 kts | 37° |
| 2026-05-04 17:09 | 45.64869 | -2.67466 | 35990 ft | 487 kts | 37° |
| 2026-05-04 17:10 | 45.78542 | -2.53148 | 35992 ft | 487 kts | 37° |
| 2026-05-04 17:11 | 45.84006 | -2.47411 | 35990 ft | 487 kts | 37° |
| 2026-05-04 17:12 | 45.92187 | -2.38779 | 35986 ft | 486 kts | 37° |
| 2026-05-04 17:13 | 46.05831 | -2.24348 | 35966 ft | 488 kts | 37° |
| 2026-05-04 17:14 | 46.17154 | -2.13625 | 35977 ft | 489 kts | 33° |
| 2026-05-04 17:15 | 46.25724 | -2.05638 | 35982 ft | 489 kts | 34° |
| 2026-05-04 17:16 | 46.37058 | -1.94760 | 35975 ft | 489 kts | 34° |
| 2026-05-04 17:17 | 46.48416 | -1.83882 | 35975 ft | 489 kts | 34° |
| 2026-05-04 17:18 | 46.59770 | -1.72976 | 35986 ft | 489 kts | 35° |
| 2026-05-04 17:19 | 46.71089 | -1.61996 | 35974 ft | 489 kts | 35° |
| 2026-05-04 17:20 | 46.82415 | -1.50984 | 35971 ft | 490 kts | 35° |
| 2026-05-04 17:20 | 46.90907 | -1.42673 | 35974 ft | 490 kts | 35° |
| 2026-05-04 17:21 | 47.01210 | -1.29952 | 35974 ft | 486 kts | 50° |
| 2026-05-04 17:22 | 47.05719 | -1.22574 | 35950 ft | 486 kts | 51° |
| 2026-05-04 17:23 | 47.14745 | -1.07839 | 35947 ft | 486 kts | 51° |
| 2026-05-04 17:24 | 47.21493 | -0.96691 | 35965 ft | 486 kts | 51° |
| 2026-05-04 17:25 | 47.30488 | -0.81816 | 35943 ft | 486 kts | 51° |
| 2026-05-04 17:26 | 47.39454 | -0.66879 | 35950 ft | 486 kts | 51° |
| 2026-05-04 17:26 | 47.46653 | -0.56331 | 35955 ft | 490 kts | 38° |
| 2026-05-04 17:27 | 47.52085 | -0.50362 | 35951 ft | 490 kts | 38° |
| 2026-05-04 17:28 | 47.63005 | -0.38283 | 35953 ft | 490 kts | 39° |
| 2026-05-04 17:29 | 47.79337 | -0.20093 | 35959 ft | 489 kts | 39° |
| 2026-05-04 17:31 | 47.92918 | -0.04853 | 35982 ft | 489 kts | 39° |
| 2026-05-04 17:32 | 48.05565 | 0.09444 | 35954 ft | 490 kts | 39° |
| 2026-05-04 17:33 | 48.17300 | 0.22783 | 35948 ft | 490 kts | 39° |
| 2026-05-04 17:34 | 48.27268 | 0.34167 | 35972 ft | 489 kts | 39° |
| 2026-05-04 17:35 | 48.40749 | 0.49655 | 35950 ft | 489 kts | 38° |
| 2026-05-04 17:36 | 48.46143 | 0.55888 | 35959 ft | 489 kts | 38° |
| 2026-05-04 17:36 | 48.51537 | 0.62137 | 35964 ft | 488 kts | 38° |
| 2026-05-04 17:37 | 48.56925 | 0.68394 | 35967 ft | 488 kts | 38° |
| 2026-05-04 17:37 | 48.62300 | 0.74651 | 35971 ft | 488 kts | 38° |
| 2026-05-04 17:38 | 48.67671 | 0.80926 | 35965 ft | 487 kts | 38° |
| 2026-05-04 17:38 | 48.73019 | 0.87200 | 35959 ft | 486 kts | 38° |
| 2026-05-04 17:39 | 48.81062 | 0.96540 | 35975 ft | 485 kts | 38° |
| 2026-05-04 17:39 | 48.86455 | 1.02703 | 35971 ft | 485 kts | 37° |
| 2026-05-04 17:40 | 48.91830 | 1.08880 | 35976 ft | 485 kts | 38° |
| 2026-05-04 17:40 | 48.97156 | 1.15061 | 35976 ft | 485 kts | 38° |
| 2026-05-04 17:41 | 49.02506 | 1.21304 | 35978 ft | 484 kts | 39° |
| 2026-05-04 17:41 | 49.07461 | 1.28245 | 35973 ft | 484 kts | 44° |
| 2026-05-04 17:42 | 49.12346 | 1.35300 | 35962 ft | 483 kts | 44° |
| 2026-05-04 17:42 | 49.17229 | 1.42361 | 35960 ft | 483 kts | 44° |
| 2026-05-04 17:43 | 49.22111 | 1.49430 | 35967 ft | 484 kts | 44° |
| 2026-05-04 17:43 | 49.26989 | 1.56526 | 35965 ft | 484 kts | 44° |
| 2026-05-04 17:44 | 49.31861 | 1.63634 | 35966 ft | 483 kts | 44° |
| 2026-05-04 17:44 | 49.36719 | 1.70739 | 35974 ft | 483 kts | 44° |
| 2026-05-04 17:45 | 49.41590 | 1.77866 | 35972 ft | 483 kts | 44° |
| 2026-05-04 17:45 | 49.46441 | 1.84995 | 35958 ft | 483 kts | 45° |
| 2026-05-04 17:46 | 49.51303 | 1.92126 | 35956 ft | 483 kts | 41° |
| 2026-05-04 17:46 | 49.56677 | 1.98330 | 35963 ft | 483 kts | 37° |
| 2026-05-04 17:47 | 49.62090 | 2.04450 | 35964 ft | 482 kts | 37° |
| 2026-05-04 17:47 | 49.67456 | 2.10533 | 35966 ft | 482 kts | 37° |
| 2026-05-04 17:48 | 49.72851 | 2.16668 | 35965 ft | 482 kts | 37° |
| 2026-05-04 17:48 | 49.78235 | 2.22819 | 35971 ft | 481 kts | 37° |
| 2026-05-04 17:49 | 49.83620 | 2.28989 | 35952 ft | 481 kts | 37° |
| 2026-05-04 17:49 | 49.89004 | 2.35168 | 35955 ft | 482 kts | 37° |
| 2026-05-04 17:50 | 49.94386 | 2.41357 | 35949 ft | 482 kts | 37° |
| 2026-05-04 17:50 | 49.99765 | 2.47566 | 35955 ft | 482 kts | 37° |
| 2026-05-04 17:51 | 50.05139 | 2.53794 | 35957 ft | 482 kts | 37° |
| 2026-05-04 17:51 | 50.10507 | 2.60035 | 35958 ft | 482 kts | 37° |
| 2026-05-04 17:52 | 50.15874 | 2.66285 | 35964 ft | 482 kts | 37° |
| 2026-05-04 17:52 | 50.21237 | 2.72545 | 35968 ft | 482 kts | 37° |
| 2026-05-04 17:53 | 50.26600 | 2.78824 | 35950 ft | 482 kts | 38° |
| 2026-05-04 17:53 | 50.31970 | 2.85129 | 35948 ft | 483 kts | 38° |
| 2026-05-04 17:54 | 50.37221 | 2.91316 | 35953 ft | 468 kts | 38° |
| 2026-05-04 17:54 | 50.42458 | 2.97293 | 35950 ft | 465 kts | 31° |
| 2026-05-04 17:55 | 50.48147 | 3.02135 | 35948 ft | 465 kts | 28° |
| 2026-05-04 17:55 | 50.53846 | 3.06941 | 35948 ft | 465 kts | 28° |
| 2026-05-04 17:56 | 50.59543 | 3.11752 | 35948 ft | 465 kts | 28° |
| 2026-05-04 17:56 | 50.62401 | 3.14168 | 35809 ft | 466 kts | 28° |
| 2026-05-04 17:56 | 50.65264 | 3.16594 | 35195 ft | 467 kts | 28° |
| 2026-05-04 17:57 | 50.68123 | 3.19018 | 34643 ft | 466 kts | 28° |
| 2026-05-04 17:57 | 50.70970 | 3.21437 | 34093 ft | 464 kts | 28° |
| 2026-05-04 17:57 | 50.73811 | 3.23844 | 33476 ft | 463 kts | 28° |
| 2026-05-04 17:57 | 50.76647 | 3.26217 | 32924 ft | 460 kts | 28° |
| 2026-05-04 17:58 | 50.79469 | 3.28563 | 32360 ft | 457 kts | 28° |
| 2026-05-04 17:58 | 50.82272 | 3.30888 | 31820 ft | 453 kts | 28° |
| 2026-05-04 17:58 | 50.85058 | 3.33203 | 31292 ft | 450 kts | 28° |
| 2026-05-04 17:58 | 50.87824 | 3.35510 | 30747 ft | 447 kts | 28° |
| 2026-05-04 17:59 | 50.90562 | 3.37799 | 30230 ft | 444 kts | 28° |
| 2026-05-04 17:59 | 50.93289 | 3.40085 | 29642 ft | 441 kts | 29° |
| 2026-05-04 17:59 | 50.98645 | 3.44589 | 28611 ft | 431 kts | 29° |
| 2026-05-04 18:00 | 51.01278 | 3.46809 | 28101 ft | 426 kts | 28° |
| 2026-05-04 18:00 | 51.03884 | 3.49010 | 27605 ft | 422 kts | 29° |
| 2026-05-04 18:00 | 51.06460 | 3.51188 | 27125 ft | 417 kts | 28° |
| 2026-05-04 18:00 | 51.09007 | 3.53343 | 26634 ft | 413 kts | 29° |
| 2026-05-04 18:01 | 51.11529 | 3.55477 | 26178 ft | 408 kts | 28° |
| 2026-05-04 18:01 | 51.14020 | 3.57587 | 25715 ft | 404 kts | 29° |
| 2026-05-04 18:01 | 51.16488 | 3.59681 | 25276 ft | 400 kts | 28° |
| 2026-05-04 18:02 | 51.21372 | 3.63718 | 24395 ft | 392 kts | 22° |
| 2026-05-04 18:02 | 51.23949 | 3.65039 | 23964 ft | 388 kts | 12° |
| 2026-05-04 18:02 | 51.26585 | 3.65619 | 23523 ft | 389 kts | 1° |
| 2026-05-04 18:02 | 51.29290 | 3.65591 | 23039 ft | 387 kts | 356° |
| 2026-05-04 18:03 | 51.31970 | 3.65501 | 22603 ft | 383 kts | 357° |
| 2026-05-04 18:03 | 51.34632 | 3.65419 | 22170 ft | 381 kts | 357° |
| 2026-05-04 18:03 | 51.37308 | 3.65339 | 21734 ft | 378 kts | 357° |
| 2026-05-04 18:03 | 51.39924 | 3.65264 | 21311 ft | 375 kts | 357° |
| 2026-05-04 18:04 | 51.42490 | 3.65188 | 20886 ft | 372 kts | 358° |
| 2026-05-04 18:04 | 51.45068 | 3.65106 | 20469 ft | 369 kts | 358° |
| 2026-05-04 18:04 | 51.50159 | 3.64952 | 19650 ft | 363 kts | 358° |
| 2026-05-04 18:05 | 51.52681 | 3.64877 | 19234 ft | 361 kts | 358° |
| 2026-05-04 18:05 | 51.55180 | 3.64800 | 18828 ft | 359 kts | 358° |
| 2026-05-04 18:05 | 51.57672 | 3.64723 | 18427 ft | 357 kts | 359° |
| 2026-05-04 18:05 | 51.60149 | 3.64645 | 17988 ft | 355 kts | 359° |
| 2026-05-04 18:06 | 51.65047 | 3.64488 | 17184 ft | 349 kts | 359° |
| 2026-05-04 18:06 | 51.67464 | 3.64470 | 16784 ft | 347 kts | 4° |
| 2026-05-04 18:06 | 51.69817 | 3.65204 | 16387 ft | 344 kts | 19° |
| 2026-05-04 18:07 | 51.71972 | 3.66840 | 16003 ft | 342 kts | 33° |
| 2026-05-04 18:07 | 51.73804 | 3.69245 | 15614 ft | 340 kts | 46° |
| 2026-05-04 18:07 | 51.75225 | 3.72264 | 15229 ft | 338 kts | 57° |
| 2026-05-04 18:07 | 51.76467 | 3.75428 | 14843 ft | 338 kts | 57° |
| 2026-05-04 18:08 | 51.77725 | 3.78627 | 14461 ft | 337 kts | 57° |
| 2026-05-04 18:08 | 51.79030 | 3.81940 | 14058 ft | 361 kts | 57° |
| 2026-05-04 18:08 | 51.80388 | 3.85391 | 13615 ft | 365 kts | 57° |
| 2026-05-04 18:08 | 51.81748 | 3.88852 | 13180 ft | 364 kts | 57° |
| 2026-05-04 18:09 | 51.84448 | 3.95735 | 12340 ft | 360 kts | 57° |
| 2026-05-04 18:09 | 51.87074 | 4.02448 | 11719 ft | 344 kts | 57° |
| 2026-05-04 18:10 | 51.88344 | 4.05706 | 11247 ft | 341 kts | 58° |
| 2026-05-04 18:10 | 51.89704 | 4.08838 | 10766 ft | 338 kts | 47° |
| 2026-05-04 18:10 | 51.91517 | 4.11213 | 10350 ft | 335 kts | 29° |
| 2026-05-04 18:10 | 51.93658 | 4.12523 | 10154 ft | 324 kts | 11° |
| 2026-05-04 18:11 | 51.95854 | 4.12761 | 10024 ft | 311 kts | 356° |
| 2026-05-04 18:11 | 51.97967 | 4.12538 | 9899 ft | 299 kts | 355° |
| 2026-05-04 18:11 | 52.00026 | 4.12316 | 9524 ft | 296 kts | 355° |
| 2026-05-04 18:11 | 52.02111 | 4.12088 | 8982 ft | 305 kts | 355° |
| 2026-05-04 18:12 | 52.04238 | 4.11855 | 8629 ft | 306 kts | 355° |
| 2026-05-04 18:12 | 52.06362 | 4.11932 | 8243 ft | 305 kts | 9° |
| 2026-05-04 18:12 | 52.08388 | 4.12907 | 7873 ft | 304 kts | 24° |
| 2026-05-04 18:12 | 52.10298 | 4.14365 | 7500 ft | 302 kts | 25° |
| 2026-05-04 18:13 | 52.12198 | 4.15815 | 7135 ft | 301 kts | 24° |
| 2026-05-04 18:13 | 52.14088 | 4.17253 | 6773 ft | 299 kts | 24° |
| 2026-05-04 18:13 | 52.17829 | 4.20085 | 6024 ft | 294 kts | 24° |
| 2026-05-04 18:14 | 52.19562 | 4.21812 | 5726 ft | 289 kts | 40° |
| 2026-05-04 18:14 | 52.20842 | 4.24217 | 5598 ft | 276 kts | 58° |
| 2026-05-04 18:14 | 52.21629 | 4.26994 | 5460 ft | 263 kts | 69° |
| 2026-05-04 18:15 | 52.22810 | 4.32288 | 4771 ft | 241 kts | 69° |
| 2026-05-04 18:15 | 52.23261 | 4.37545 | 4470 ft | 242 kts | 100° |
| 2026-05-04 18:15 | 52.22695 | 4.40116 | 4177 ft | 240 kts | 115° |
| 2026-05-04 18:16 | 52.21987 | 4.42526 | 3962 ft | 236 kts | 115° |
| 2026-05-04 18:16 | 52.21286 | 4.44943 | 3741 ft | 231 kts | 112° |
| 2026-05-04 18:16 | 52.20886 | 4.47448 | 3463 ft | 228 kts | 91° |
| 2026-05-04 18:17 | 52.20941 | 4.52565 | 2905 ft | 223 kts | 73° |
| 2026-05-04 18:17 | 52.21597 | 4.54815 | 2626 ft | 220 kts | 57° |
| 2026-05-04 18:17 | 52.23208 | 4.58947 | 2159 ft | 215 kts | 56° |
| 2026-05-04 18:18 | 52.24008 | 4.61012 | 2034 ft | 213 kts | 56° |
| 2026-05-04 18:18 | 52.24781 | 4.63013 | 1922 ft | 202 kts | 56° |
| 2026-05-04 18:18 | 52.25507 | 4.64894 | 1456 ft | 196 kts | 56° |
| 2026-05-04 18:18 | 52.26186 | 4.66658 | 1098 ft | 170 kts | 54° |
| 2026-05-04 18:19 | 52.27286 | 4.69511 | 637 ft | 136 kts | 53° |
| 2026-05-04 18:19 | 52.27786 | 4.70807 | 457 ft | 132 kts | 53° |
| 2026-05-04 18:19 | 52.28279 | 4.72085 | 270 ft | 135 kts | 54° |
| 2026-05-04 18:20 | 52.28777 | 4.73370 | 90 ft | 133 kts | 54° |
| 2026-05-04 18:20 | 52.29255 | 4.74623 | 9 ft | 121 kts | 56° |
| 2026-05-04 18:20 | 52.29506 | 4.75270 | -3 ft | 12 kts | 50° |
| 2026-05-04 18:20 | 52.29611 | 4.75349 | -1 ft | 18 kts | 348° |
| 2026-05-04 18:21 | 52.29731 | 4.75297 | -2 ft | 18 kts | 20° |
| 2026-05-04 18:21 | 52.29793 | 4.75467 | -2 ft | 19 kts | 65° |
| 2026-05-04 18:21 | 52.29867 | 4.75664 | -2 ft | 23 kts | 55° |
| 2026-05-04 18:21 | 52.29952 | 4.75879 | -2 ft | 22 kts | 58° |
| 2026-05-04 18:22 | 52.30036 | 4.76095 | -2 ft | 23 kts | 57° |
| 2026-05-04 18:22 | 52.30118 | 4.76315 | -2 ft | 23 kts | 58° |
| 2026-05-04 18:22 | 52.30202 | 4.76538 | -2 ft | 23 kts | 58° |
| 2026-05-04 18:22 | 52.30288 | 4.76761 | -3 ft | 23 kts | 57° |
| 2026-05-04 18:23 | 52.30375 | 4.76984 | -3 ft | 24 kts | 57° |
| 2026-05-04 18:23 | 52.30434 | 4.77136 | -3 ft | 24 kts | 58° |
| 2026-05-04 18:23 | 52.30523 | 4.77368 | -3 ft | 24 kts | 57° |
| 2026-05-04 18:23 | 52.30627 | 4.77569 | -2 ft | 23 kts | 26° |
| 2026-05-04 18:24 | 52.30770 | 4.77596 | -2 ft | 16 kts | 1° |
| 2026-05-04 18:24 | 52.30833 | 4.77487 | -2 ft | 14 kts | 279° |
| 2026-05-04 18:24 | 52.30838 | 4.77377 | -2 ft | 4 kts | 273° |
| 2026-05-04 18:24 | 52.30840 | 4.77332 | -2 ft | 4 kts | 273° |
| 2026-05-04 18:25 | 52.30860 | 4.77300 | -2 ft | 7 kts | 345° |
| 2026-05-04 18:25 | 52.30885 | 4.77301 | -2 ft | 0 kts | 1° |
| 2026-05-04 18:25 | 52.30888 | 4.77301 | -2 ft | 0 kts | 1° |